sensor_id;sensor_type;location;lat;lon;timestamp;pressure;altitude;pressure_sealevel;temperature;humidity
43071;BME280;36278;47.952;21.714;2023-01-28T00:02:19;100295.31;;;0.86;100.00
43071;BME280;36278;47.952;21.714;2023-01-28T00:04:44;100295.09;;;0.92;100.00
43071;BME280;36278;47.952;21.714;2023-01-28T00:07:10;100296.28;;;0.83;100.00
43071;BME280;36278;47.952;21.714;2023-01-28T00:09:35;100294.31;;;0.90;100.00
43071;BME280;36278;47.952;21.714;2023-01-28T00:12:00;100302.88;;;0.94;100.00
43071;BME280;36278;47.952;21.714;2023-01-28T00:14:26;100302.59;;;1.01;100.00
43071;BME280;36278;47.952;21.714;2023-01-28T00:16:51;100308.59;;;1.03;100.00
43071;BME280;36278;47.952;21.714;2023-01-28T00:19:17;100295.03;;;0.94;100.00
43071;BME280;36278;47.952;21.714;2023-01-28T00:21:42;100314.03;;;1.21;100.00
43071;BME280;36278;47.952;21.714;2023-01-28T00:24:08;100309.16;;;1.11;100.00
43071;BME280;36278;47.952;21.714;2023-01-28T00:26:34;100317.75;;;1.15;100.00
43071;BME280;36278;47.952;21.714;2023-01-28T00:28:59;100322.00;;;1.18;100.00
43071;BME280;36278;47.952;21.714;2023-01-28T00:31:26;100311.84;;;1.10;100.00
43071;BME280;36278;47.952;21.714;2023-01-28T00:33:52;100310.84;;;1.14;100.00
43071;BME280;36278;47.952;21.714;2023-01-28T00:36:20;100315.50;;;1.04;100.00
43071;BME280;36278;47.952;21.714;2023-01-28T00:38:51;100317.13;;;1.08;100.00
43071;BME280;36278;47.952;21.714;2023-01-28T00:41:19;100320.63;;;1.07;100.00
43071;BME280;36278;47.952;21.714;2023-01-28T00:43:46;100321.56;;;1.05;100.00
43071;BME280;36278;47.952;21.714;2023-01-28T00:46:12;100326.69;;;1.08;100.00
43071;BME280;36278;47.952;21.714;2023-01-28T00:48:39;100323.69;;;1.19;100.00
43071;BME280;36278;47.952;21.714;2023-01-28T00:51:05;100330.38;;;1.26;100.00
43071;BME280;36278;47.952;21.714;2023-01-28T00:53:31;100328.00;;;1.20;100.00
43071;BME280;36278;47.952;21.714;2023-01-28T00:55:58;100330.03;;;1.11;100.00
43071;BME280;36278;47.952;21.714;2023-01-28T00:58:24;100325.66;;;1.12;100.00
43071;BME280;36278;47.952;21.714;2023-01-28T01:00:50;100332.44;;;1.18;100.00
43071;BME280;36278;47.952;21.714;2023-01-28T01:03:17;100312.47;;;0.93;100.00
43071;BME280;36278;47.952;21.714;2023-01-28T01:05:43;100318.53;;;0.94;100.00
43071;BME280;36278;47.952;21.714;2023-01-28T01:08:09;100344.59;;;0.94;100.00
43071;BME280;36278;47.952;21.714;2023-01-28T01:10:36;100333.31;;;0.93;100.00
43071;BME280;36278;47.952;21.714;2023-01-28T01:13:04;100340.34;;;0.91;100.00
43071;BME280;36278;47.952;21.714;2023-01-28T01:15:30;100332.69;;;0.87;100.00
43071;BME280;36278;47.952;21.714;2023-01-28T01:17:56;100334.16;;;0.94;100.00
43071;BME280;36278;47.952;21.714;2023-01-28T01:20:25;100341.03;;;0.96;100.00
43071;BME280;36278;47.952;21.714;2023-01-28T01:22:51;100334.59;;;1.06;100.00
43071;BME280;36278;47.952;21.714;2023-01-28T01:25:17;100331.44;;;0.97;100.00
43071;BME280;36278;47.952;21.714;2023-01-28T01:27:43;100331.16;;;1.04;100.00
43071;BME280;36278;47.952;21.714;2023-01-28T01:30:11;100315.00;;;0.95;100.00
43071;BME280;36278;47.952;21.714;2023-01-28T01:32:37;100324.16;;;1.06;100.00
43071;BME280;36278;47.952;21.714;2023-01-28T01:35:04;100336.03;;;1.13;100.00
43071;BME280;36278;47.952;21.714;2023-01-28T01:37:34;100345.31;;;0.97;100.00
43071;BME280;36278;47.952;21.714;2023-01-28T01:40:00;100333.44;;;0.90;100.00
43071;BME280;36278;47.952;21.714;2023-01-28T01:42:30;100345.31;;;0.97;100.00
43071;BME280;36278;47.952;21.714;2023-01-28T01:45:04;100332.47;;;0.93;100.00
43071;BME280;36278;47.952;21.714;2023-01-28T01:50:16;100343.28;;;1.05;100.00
43071;BME280;36278;47.952;21.714;2023-01-28T01:52:45;100332.06;;;1.03;100.00
43071;BME280;36278;47.952;21.714;2023-01-28T01:55:16;100336.28;;;1.07;100.00
43071;BME280;36278;47.952;21.714;2023-01-28T01:57:45;100334.59;;;1.06;100.00
43071;BME280;36278;47.952;21.714;2023-01-28T02:00:11;100334.16;;;0.94;100.00
43071;BME280;36278;47.952;21.714;2023-01-28T02:02:41;100333.03;;;1.01;100.00
43071;BME280;36278;47.952;21.714;2023-01-28T02:05:10;100321.56;;;1.05;100.00
43071;BME280;36278;47.952;21.714;2023-01-28T02:07:36;100324.59;;;0.94;100.00
43071;BME280;36278;47.952;21.714;2023-01-28T02:10:04;100325.50;;;0.93;100.00
43071;BME280;36278;47.952;21.714;2023-01-28T02:12:33;100330.84;;;0.89;100.00
43071;BME280;36278;47.952;21.714;2023-01-28T02:15:06;100328.31;;;0.87;100.00
43071;BME280;36278;47.952;21.714;2023-01-28T02:17:34;100323.75;;;0.94;100.00
43071;BME280;36278;47.952;21.714;2023-01-28T02:20:11;100318.47;;;0.95;100.00
43071;BME280;36278;47.952;21.714;2023-01-28T02:23:02;100328.94;;;0.94;100.00
43071;BME280;36278;47.952;21.714;2023-01-28T02:31:19;100326.72;;;0.83;100.00
43071;BME280;36278;47.952;21.714;2023-01-28T02:34:00;100322.88;;;0.93;100.00
43071;BME280;36278;47.952;21.714;2023-01-28T02:39:16;100325.00;;;1.07;100.00
43071;BME280;36278;47.952;21.714;2023-01-28T02:41:51;100324.88;;;1.10;100.00
43071;BME280;36278;47.952;21.714;2023-01-28T02:44:18;100311.25;;;1.02;100.00
43071;BME280;36278;47.952;21.714;2023-01-28T02:46:44;100330.81;;;1.13;100.00
43071;BME280;36278;47.952;21.714;2023-01-28T02:49:52;100328.19;;;1.15;100.00
43071;BME280;36278;47.952;21.714;2023-01-28T02:56:05;100323.97;;;1.11;100.00
43071;BME280;36278;47.952;21.714;2023-01-28T03:01:53;100319.16;;;1.00;100.00
43071;BME280;36278;47.952;21.714;2023-01-28T03:04:31;100338.06;;;1.05;100.00
43071;BME280;36278;47.952;21.714;2023-01-28T03:07:02;100332.38;;;1.19;100.00
43071;BME280;36278;47.952;21.714;2023-01-28T03:09:29;100325.91;;;1.06;100.00
43071;BME280;36278;47.952;21.714;2023-01-28T03:11:58;100339.28;;;1.20;100.00
43071;BME280;36278;47.952;21.714;2023-01-28T03:14:48;100338.38;;;1.21;100.00
43071;BME280;36278;47.952;21.714;2023-01-28T03:18:31;100345.59;;;1.15;100.00
43071;BME280;36278;47.952;21.714;2023-01-28T03:21:03;100341.16;;;1.17;100.00
43071;BME280;36278;47.952;21.714;2023-01-28T03:30:08;100339.69;;;1.09;100.00
43071;BME280;36278;47.952;21.714;2023-01-28T03:32:54;100336.03;;;1.13;100.00
43071;BME280;36278;47.952;21.714;2023-01-28T03:35:39;100338.09;;;1.29;100.00
43071;BME280;36278;47.952;21.714;2023-01-28T03:38:23;100333.50;;;1.12;100.00
43071;BME280;36278;47.952;21.714;2023-01-28T03:41:02;100332.84;;;1.07;100.00
43071;BME280;36278;47.952;21.714;2023-01-28T03:43:29;100341.59;;;1.04;100.00
43071;BME280;36278;47.952;21.714;2023-01-28T03:45:55;100334.69;;;1.03;100.00
43071;BME280;36278;47.952;21.714;2023-01-28T03:48:24;100331.72;;;1.12;100.00
43071;BME280;36278;47.952;21.714;2023-01-28T03:50:51;100334.25;;;1.16;100.00
43071;BME280;36278;47.952;21.714;2023-01-28T03:53:18;100338.03;;;1.07;100.00
43071;BME280;36278;47.952;21.714;2023-01-28T03:55:46;100345.97;;;1.04;100.00
43071;BME280;36278;47.952;21.714;2023-01-28T03:58:12;100340.66;;;1.07;100.00
43071;BME280;36278;47.952;21.714;2023-01-28T04:00:38;100352.94;;;1.03;100.00
43071;BME280;36278;47.952;21.714;2023-01-28T04:03:08;100344.66;;;0.92;100.00
43071;BME280;36278;47.952;21.714;2023-01-28T04:06:01;100349.59;;;1.00;100.00
43071;BME280;36278;47.952;21.714;2023-01-28T04:08:27;100344.06;;;1.09;100.00
43071;BME280;36278;47.952;21.714;2023-01-28T04:10:54;100340.88;;;1.01;100.00
43071;BME280;36278;47.952;21.714;2023-01-28T04:13:20;100357.16;;;1.07;100.00
43071;BME280;36278;47.952;21.714;2023-01-28T04:15:46;100348.09;;;1.18;100.00
43071;BME280;36278;47.952;21.714;2023-01-28T04:18:11;100344.69;;;1.16;100.00
43071;BME280;36278;47.952;21.714;2023-01-28T04:20:37;100352.03;;;1.04;100.00
43071;BME280;36278;47.952;21.714;2023-01-28T04:23:04;100351.94;;;1.07;100.00
43071;BME280;36278;47.952;21.714;2023-01-28T04:25:30;100363.78;;;1.16;100.00
43071;BME280;36278;47.952;21.714;2023-01-28T04:27:56;100361.63;;;1.04;100.00
43071;BME280;36278;47.952;21.714;2023-01-28T04:30:22;100362.59;;;1.01;100.00
43071;BME280;36278;47.952;21.714;2023-01-28T04:32:48;100356.59;;;0.99;100.00
43071;BME280;36278;47.952;21.714;2023-01-28T04:35:17;100360.75;;;1.03;100.00
43071;BME280;36278;47.952;21.714;2023-01-28T04:37:44;100358.22;;;1.02;100.00
43071;BME280;36278;47.952;21.714;2023-01-28T04:40:11;100374.44;;;1.10;100.00
43071;BME280;36278;47.952;21.714;2023-01-28T04:42:37;100371.13;;;1.05;100.00
43071;BME280;36278;47.952;21.714;2023-01-28T04:45:03;100381.28;;;1.14;100.00
43071;BME280;36278;47.952;21.714;2023-01-28T04:47:28;100372.75;;;1.09;100.00
43071;BME280;36278;47.952;21.714;2023-01-28T04:49:54;100371.00;;;1.09;100.00
43071;BME280;36278;47.952;21.714;2023-01-28T04:52:19;100376.09;;;1.12;100.00
43071;BME280;36278;47.952;21.714;2023-01-28T04:54:45;100379.38;;;1.18;100.00
43071;BME280;36278;47.952;21.714;2023-01-28T04:57:10;100383.91;;;1.12;100.00
43071;BME280;36278;47.952;21.714;2023-01-28T04:59:36;100385.59;;;1.13;100.00
43071;BME280;36278;47.952;21.714;2023-01-28T05:02:02;100385.41;;;1.20;100.00
43071;BME280;36278;47.952;21.714;2023-01-28T05:04:27;100384.09;;;1.08;100.00
43071;BME280;36278;47.952;21.714;2023-01-28T05:06:53;100390.25;;;1.05;100.00
43071;BME280;36278;47.952;21.714;2023-01-28T05:09:18;100395.84;;;1.20;100.00
43071;BME280;36278;47.952;21.714;2023-01-28T05:11:44;100394.72;;;1.27;100.00
43071;BME280;36278;47.952;21.714;2023-01-28T05:14:10;100401.28;;;1.37;100.00
43071;BME280;36278;47.952;21.714;2023-01-28T05:16:35;100393.53;;;1.35;100.00
43071;BME280;36278;47.952;21.714;2023-01-28T05:19:01;100399.16;;;1.48;100.00
43071;BME280;36278;47.952;21.714;2023-01-28T05:21:27;100394.09;;;1.44;100.00
43071;BME280;36278;47.952;21.714;2023-01-28T05:23:52;100386.31;;;1.42;100.00
43071;BME280;36278;47.952;21.714;2023-01-28T05:26:18;100384.69;;;1.39;100.00
43071;BME280;36278;47.952;21.714;2023-01-28T05:28:43;100386.66;;;1.33;100.00
43071;BME280;36278;47.952;21.714;2023-01-28T05:31:09;100392.44;;;1.41;100.00
43071;BME280;36278;47.952;21.714;2023-01-28T05:33:35;100403.97;;;1.35;100.00
43071;BME280;36278;47.952;21.714;2023-01-28T05:36:01;100406.34;;;1.42;100.00
43071;BME280;36278;47.952;21.714;2023-01-28T05:38:27;100399.53;;;1.37;100.00
43071;BME280;36278;47.952;21.714;2023-01-28T05:40:52;100403.31;;;1.29;100.00
43071;BME280;36278;47.952;21.714;2023-01-28T05:43:18;100401.56;;;1.29;100.00
43071;BME280;36278;47.952;21.714;2023-01-28T05:45:43;100398.34;;;1.23;100.00
43071;BME280;36278;47.952;21.714;2023-01-28T05:48:08;100402.66;;;1.24;100.00
43071;BME280;36278;47.952;21.714;2023-01-28T05:50:34;100397.94;;;1.10;100.00
43071;BME280;36278;47.952;21.714;2023-01-28T05:52:59;100408.88;;;1.20;100.00
43071;BME280;36278;47.952;21.714;2023-01-28T05:55:25;100411.59;;;1.17;100.00
43071;BME280;36278;47.952;21.714;2023-01-28T05:57:50;100416.56;;;1.24;99.89
43071;BME280;36278;47.952;21.714;2023-01-28T06:00:16;100420.09;;;1.22;100.00
43071;BME280;36278;47.952;21.714;2023-01-28T06:02:42;100430.59;;;1.20;100.00
43071;BME280;36278;47.952;21.714;2023-01-28T06:05:09;100421.00;;;1.21;100.00
43071;BME280;36278;47.952;21.714;2023-01-28T06:07:35;100429.41;;;1.29;98.56
43071;BME280;36278;47.952;21.714;2023-01-28T06:10:00;100425.91;;;1.30;99.13
43071;BME280;36278;47.952;21.714;2023-01-28T06:12:26;100427.34;;;1.38;98.17
43071;BME280;36278;47.952;21.714;2023-01-28T06:14:52;100416.22;;;1.33;98.79
43071;BME280;36278;47.952;21.714;2023-01-28T06:17:18;100442.72;;;1.46;99.03
43071;BME280;36278;47.952;21.714;2023-01-28T06:19:44;100432.19;;;1.49;96.41
43071;BME280;36278;47.952;21.714;2023-01-28T06:22:09;100436.22;;;1.58;97.07
43071;BME280;36278;47.952;21.714;2023-01-28T06:24:35;100436.22;;;1.58;97.19
43071;BME280;36278;47.952;21.714;2023-01-28T06:27:01;100450.84;;;1.62;95.87
43071;BME280;36278;47.952;21.714;2023-01-28T06:29:28;100449.47;;;1.52;95.65
43071;BME280;36278;47.952;21.714;2023-01-28T06:31:53;100444.47;;;1.46;96.11
43071;BME280;36278;47.952;21.714;2023-01-28T06:34:19;100445.16;;;1.51;96.35
43071;BME280;36278;47.952;21.714;2023-01-28T06:36:45;100431.34;;;1.49;96.52
43071;BME280;36278;47.952;21.714;2023-01-28T06:39:11;100453.69;;;1.56;95.46
43071;BME280;36278;47.952;21.714;2023-01-28T06:41:36;100452.56;;;1.63;94.28
43071;BME280;36278;47.952;21.714;2023-01-28T06:44:02;100456.19;;;1.59;95.06
43071;BME280;36278;47.952;21.714;2023-01-28T06:46:28;100458.66;;;1.62;93.67
43071;BME280;36278;47.952;21.714;2023-01-28T06:48:54;100451.66;;;1.64;94.05
43071;BME280;36278;47.952;21.714;2023-01-28T06:51:19;100462.25;;;1.59;93.99
43071;BME280;36278;47.952;21.714;2023-01-28T06:53:45;100461.88;;;1.47;94.08
43071;BME280;36278;47.952;21.714;2023-01-28T06:56:10;100449.88;;;1.41;94.96
43071;BME280;36278;47.952;21.714;2023-01-28T06:58:36;100471.78;;;1.60;95.13
43071;BME280;36278;47.952;21.714;2023-01-28T07:01:02;100461.53;;;1.56;94.65
43071;BME280;36278;47.952;21.714;2023-01-28T07:03:28;100475.16;;;1.64;94.04
43071;BME280;36278;47.952;21.714;2023-01-28T07:05:53;100470.59;;;1.69;93.60
43071;BME280;36278;47.952;21.714;2023-01-28T07:08:19;100482.59;;;1.75;92.97
43071;BME280;36278;47.952;21.714;2023-01-28T07:10:44;100475.75;;;1.71;94.29
43071;BME280;36278;47.952;21.714;2023-01-28T07:13:10;100474.88;;;1.72;93.16
43071;BME280;36278;47.952;21.714;2023-01-28T07:15:36;100482.44;;;1.79;92.34
43071;BME280;36278;47.952;21.714;2023-01-28T07:18:01;100476.16;;;1.83;92.15
43071;BME280;36278;47.952;21.714;2023-01-28T07:20:27;100485.34;;;1.93;92.46
43071;BME280;36278;47.952;21.714;2023-01-28T07:22:53;100481.13;;;1.91;92.02
43071;BME280;36278;47.952;21.714;2023-01-28T07:25:18;100490.59;;;1.93;90.13
43071;BME280;36278;47.952;21.714;2023-01-28T07:27:52;100495.53;;;2.01;92.35
43071;BME280;36278;47.952;21.714;2023-01-28T07:30:19;100493.31;;;2.14;89.82
43071;BME280;36278;47.952;21.714;2023-01-28T07:32:45;100480.81;;;1.99;91.68
43071;BME280;36278;47.952;21.714;2023-01-28T07:35:12;100498.06;;;2.03;90.01
43071;BME280;36278;47.952;21.714;2023-01-28T07:37:38;100490.22;;;2.03;91.07
43071;BME280;36278;47.952;21.714;2023-01-28T07:40:04;100492.97;;;2.00;90.88
43071;BME280;36278;47.952;21.714;2023-01-28T07:42:30;100490.31;;;2.01;90.86
43071;BME280;36278;47.952;21.714;2023-01-28T07:44:55;100495.25;;;2.09;90.87
43071;BME280;36278;47.952;21.714;2023-01-28T07:47:21;100496.66;;;1.94;89.72
43071;BME280;36278;47.952;21.714;2023-01-28T07:49:47;100503.19;;;2.06;89.56
43071;BME280;36278;47.952;21.714;2023-01-28T07:52:12;100494.44;;;2.07;90.21
43071;BME280;36278;47.952;21.714;2023-01-28T07:54:39;100499.81;;;2.04;90.21
43071;BME280;36278;47.952;21.714;2023-01-28T07:57:08;100499.84;;;2.02;89.06
43071;BME280;36278;47.952;21.714;2023-01-28T07:59:34;100501.94;;;2.16;89.65
43071;BME280;36278;47.952;21.714;2023-01-28T08:02:00;100502.00;;;2.14;89.50
43071;BME280;36278;47.952;21.714;2023-01-28T08:04:25;100503.81;;;2.12;87.87
43071;BME280;36278;47.952;21.714;2023-01-28T08:06:51;100500.56;;;2.29;89.05
43071;BME280;36278;47.952;21.714;2023-01-28T08:09:17;100495.59;;;2.45;86.01
43071;BME280;36278;47.952;21.714;2023-01-28T08:11:42;100501.16;;;2.36;87.22
43071;BME280;36278;47.952;21.714;2023-01-28T08:14:10;100508.34;;;2.31;87.02
43071;BME280;36278;47.952;21.714;2023-01-28T08:16:36;100507.59;;;2.27;87.42
43071;BME280;36278;47.952;21.714;2023-01-28T08:19:02;100506.28;;;2.39;88.75
43071;BME280;36278;47.952;21.714;2023-01-28T08:21:28;100506.06;;;2.45;88.13
43071;BME280;36278;47.952;21.714;2023-01-28T08:23:53;100495.53;;;2.46;86.85
43071;BME280;36278;47.952;21.714;2023-01-28T08:26:20;100505.75;;;2.52;88.64
43071;BME280;36278;47.952;21.714;2023-01-28T08:28:45;100501.97;;;2.60;86.13
43071;BME280;36278;47.952;21.714;2023-01-28T08:31:11;100505.94;;;2.70;85.32
43071;BME280;36278;47.952;21.714;2023-01-28T08:33:36;100505.69;;;2.54;85.86
43071;BME280;36278;47.952;21.714;2023-01-28T08:36:03;100515.00;;;2.61;87.29
43071;BME280;36278;47.952;21.714;2023-01-28T08:38:29;100510.34;;;2.68;86.56
43071;BME280;36278;47.952;21.714;2023-01-28T08:40:55;100516.03;;;2.79;86.70
43071;BME280;36278;47.952;21.714;2023-01-28T08:43:22;100513.47;;;2.77;86.57
43071;BME280;36278;47.952;21.714;2023-01-28T08:45:47;100529.34;;;2.73;87.14
43071;BME280;36278;47.952;21.714;2023-01-28T08:48:17;100527.78;;;2.69;85.77
43071;BME280;36278;47.952;21.714;2023-01-28T08:50:43;100534.44;;;2.76;87.38
43071;BME280;36278;47.952;21.714;2023-01-28T08:53:17;100540.19;;;2.86;87.20
43071;BME280;36278;47.952;21.714;2023-01-28T08:55:43;100545.50;;;2.83;85.58
43071;BME280;36278;47.952;21.714;2023-01-28T08:58:11;100538.34;;;2.88;86.39
43071;BME280;36278;47.952;21.714;2023-01-28T09:00:38;100540.25;;;3.04;85.67
43071;BME280;36278;47.952;21.714;2023-01-28T09:03:04;100546.97;;;3.12;85.18
43071;BME280;36278;47.952;21.714;2023-01-28T09:05:30;100541.59;;;3.15;85.55
43071;BME280;36278;47.952;21.714;2023-01-28T09:08:03;100540.47;;;3.20;84.24
43071;BME280;36278;47.952;21.714;2023-01-28T09:10:29;100546.75;;;3.16;84.81
43071;BME280;36278;47.952;21.714;2023-01-28T09:12:54;100550.66;;;3.06;85.04
43071;BME280;36278;47.952;21.714;2023-01-28T09:15:20;100550.34;;;3.14;85.33
43071;BME280;36278;47.952;21.714;2023-01-28T09:17:45;100548.09;;;3.26;84.04
43071;BME280;36278;47.952;21.714;2023-01-28T09:20:11;100552.34;;;3.29;84.06
43071;BME280;36278;47.952;21.714;2023-01-28T09:22:37;100549.41;;;3.36;84.13
43071;BME280;36278;47.952;21.714;2023-01-28T09:25:03;100547.69;;;3.35;84.04
43071;BME280;36278;47.952;21.714;2023-01-28T09:27:28;100542.78;;;3.48;84.25
43071;BME280;36278;47.952;21.714;2023-01-28T09:29:54;100537.75;;;3.44;83.86
43071;BME280;36278;47.952;21.714;2023-01-28T09:32:19;100552.00;;;3.57;84.32
43071;BME280;36278;47.952;21.714;2023-01-28T09:34:45;100545.22;;;3.53;83.46
43071;BME280;36278;47.952;21.714;2023-01-28T09:37:10;100550.53;;;3.51;82.78
43071;BME280;36278;47.952;21.714;2023-01-28T09:39:37;100548.47;;;3.58;83.18
43071;BME280;36278;47.952;21.714;2023-01-28T09:47:41;100540.75;;;3.55;83.65
43071;BME280;36278;47.952;21.714;2023-01-28T09:50:14;100539.91;;;3.75;81.29
43071;BME280;36278;47.952;21.714;2023-01-28T09:52:41;100536.69;;;3.68;82.60
43071;BME280;36278;47.952;21.714;2023-01-28T09:55:16;100541.41;;;3.60;82.32
43071;BME280;36278;47.952;21.714;2023-01-28T09:57:48;100546.25;;;3.69;83.63
43071;BME280;36278;47.952;21.714;2023-01-28T10:00:16;100536.69;;;3.48;82.21
43071;BME280;36278;47.952;21.714;2023-01-28T10:08:25;100532.75;;;3.58;81.14
43071;BME280;36278;47.952;21.714;2023-01-28T10:11:18;100533.00;;;3.72;79.75
43071;BME280;36278;47.952;21.714;2023-01-28T10:14:15;100543.47;;;3.72;81.30
43071;BME280;36278;47.952;21.714;2023-01-28T10:19:41;100532.75;;;3.78;80.63
43071;BME280;36278;47.952;21.714;2023-01-28T10:22:58;100546.69;;;3.79;80.75
43071;BME280;36278;47.952;21.714;2023-01-28T10:25:07;100524.97;;;3.96;78.99
43071;BME280;36278;47.952;21.714;2023-01-28T10:27:40;100541.56;;;4.15;80.12
43071;BME280;36278;47.952;21.714;2023-01-28T10:30:27;100540.00;;;4.11;80.42
43071;BME280;36278;47.952;21.714;2023-01-28T10:35:25;100538.47;;;4.26;78.34
43071;BME280;36278;47.952;21.714;2023-01-28T10:37:58;100536.75;;;4.43;78.40
43071;BME280;36278;47.952;21.714;2023-01-28T10:40:26;100535.34;;;4.36;78.71
43071;BME280;36278;47.952;21.714;2023-01-28T10:42:51;100532.72;;;4.17;77.07
43071;BME280;36278;47.952;21.714;2023-01-28T10:45:20;100534.50;;;4.36;76.52
43071;BME280;36278;47.952;21.714;2023-01-28T10:47:57;100538.25;;;4.30;77.29
43071;BME280;36278;47.952;21.714;2023-01-28T10:50:29;100532.63;;;4.38;76.97
43071;BME280;36278;47.952;21.714;2023-01-28T10:52:57;100545.56;;;4.24;76.39
43071;BME280;36278;47.952;21.714;2023-01-28T10:55:29;100520.53;;;4.16;75.49
43071;BME280;36278;47.952;21.714;2023-01-28T10:57:55;100522.00;;;4.22;78.23
43071;BME280;36278;47.952;21.714;2023-01-28T11:00:30;100525.94;;;4.32;76.61
43071;BME280;36278;47.952;21.714;2023-01-28T11:02:56;100529.44;;;4.31;76.71
43071;BME280;36278;47.952;21.714;2023-01-28T11:05:29;100534.13;;;4.43;76.61
43071;BME280;36278;47.952;21.714;2023-01-28T11:08:14;100535.56;;;4.32;75.11
43071;BME280;36278;47.952;21.714;2023-01-28T11:10:41;100532.78;;;4.35;77.31
43071;BME280;36278;47.952;21.714;2023-01-28T11:13:27;100538.44;;;4.44;77.82
43071;BME280;36278;47.952;21.714;2023-01-28T11:16:04;100534.06;;;4.45;78.33
43071;BME280;36278;47.952;21.714;2023-01-28T11:18:34;100530.88;;;4.19;77.52
43071;BME280;36278;47.952;21.714;2023-01-28T11:21:05;100527.19;;;4.42;78.03
43071;BME280;36278;47.952;21.714;2023-01-28T11:23:49;100533.94;;;4.48;77.88
43071;BME280;36278;47.952;21.714;2023-01-28T11:26:43;100535.91;;;4.24;76.17
43071;BME280;36278;47.952;21.714;2023-01-28T11:31:50;100528.41;;;4.35;76.58
43071;BME280;36278;47.952;21.714;2023-01-28T11:34:18;100520.19;;;4.24;77.68
43071;BME280;36278;47.952;21.714;2023-01-28T11:37:01;100508.41;;;4.52;78.31
43071;BME280;36278;47.952;21.714;2023-01-28T11:39:28;100524.78;;;4.57;79.03
43071;BME280;36278;47.952;21.714;2023-01-28T11:42:08;100527.13;;;4.44;77.77
43071;BME280;36278;47.952;21.714;2023-01-28T11:44:35;100523.56;;;4.45;78.79
43071;BME280;36278;47.952;21.714;2023-01-28T11:52:51;100525.41;;;4.79;76.32
43071;BME280;36278;47.952;21.714;2023-01-28T12:00:42;100530.81;;;4.40;77.18
43071;BME280;36278;47.952;21.714;2023-01-28T12:08:58;100523.47;;;5.01;76.60
43071;BME280;36278;47.952;21.714;2023-01-28T12:22:57;100540.50;;;4.57;76.80
43071;BME280;36278;47.952;21.714;2023-01-28T12:28:14;100540.09;;;4.28;78.07
43071;BME280;36278;47.952;21.714;2023-01-28T12:37:52;100538.69;;;5.47;79.54
43071;BME280;36278;47.952;21.714;2023-01-28T12:42:43;100543.53;;;4.66;75.53
43071;BME280;36278;47.952;21.714;2023-01-28T12:45:39;100547.53;;;4.37;77.20
43071;BME280;36278;47.952;21.714;2023-01-28T12:48:34;100550.16;;;4.56;76.77
43071;BME280;36278;47.952;21.714;2023-01-28T12:51:17;100547.41;;;4.40;78.27
43071;BME280;36278;47.952;21.714;2023-01-28T12:53:56;100545.63;;;4.41;80.45
43071;BME280;36278;47.952;21.714;2023-01-28T12:56:44;100532.66;;;4.19;78.79
43071;BME280;36278;47.952;21.714;2023-01-28T12:59:19;100561.00;;;4.30;78.18
43071;BME280;36278;47.952;21.714;2023-01-28T13:02:02;100554.72;;;3.94;79.25
43071;BME280;36278;47.952;21.714;2023-01-28T13:09:58;100564.38;;;3.94;79.56
43071;BME280;36278;47.952;21.714;2023-01-28T13:12:30;100563.88;;;4.05;79.07
43071;BME280;36278;47.952;21.714;2023-01-28T13:14:57;100561.09;;;3.89;78.96
43071;BME280;36278;47.952;21.714;2023-01-28T13:19:49;100563.88;;;4.05;78.42
43071;BME280;36278;47.952;21.714;2023-01-28T13:24:54;100563.28;;;3.98;78.89
43071;BME280;36278;47.952;21.714;2023-01-28T13:27:25;100563.59;;;3.92;79.60
43071;BME280;36278;47.952;21.714;2023-01-28T13:30:05;100566.09;;;3.75;78.95
43071;BME280;36278;47.952;21.714;2023-01-28T13:32:54;100569.91;;;3.68;81.51
43071;BME280;36278;47.952;21.714;2023-01-28T13:35:37;100571.91;;;3.81;81.41
43071;BME280;36278;47.952;21.714;2023-01-28T13:38:16;100574.59;;;4.00;78.94
43071;BME280;36278;47.952;21.714;2023-01-28T13:40:55;100570.97;;;4.03;79.52
43071;BME280;36278;47.952;21.714;2023-01-28T13:43:27;100589.31;;;4.03;77.98
43071;BME280;36278;47.952;21.714;2023-01-28T13:46:11;100577.72;;;4.08;78.05
43071;BME280;36278;47.952;21.714;2023-01-28T13:48:44;100577.41;;;3.96;77.36
43071;BME280;36278;47.952;21.714;2023-01-28T13:51:17;100583.75;;;3.90;78.63
43071;BME280;36278;47.952;21.714;2023-01-28T13:54:06;100591.50;;;3.93;78.99
43071;BME280;36278;47.952;21.714;2023-01-28T14:18:34;100594.22;;;3.49;80.40
43071;BME280;36278;47.952;21.714;2023-01-28T14:21:03;100607.16;;;3.54;81.26
43071;BME280;36278;47.952;21.714;2023-01-28T14:23:35;100596.75;;;3.52;80.57
43071;BME280;36278;47.952;21.714;2023-01-28T14:28:49;100596.91;;;3.48;80.57
43071;BME280;36278;47.952;21.714;2023-01-28T14:31:26;100593.00;;;3.37;79.19
43071;BME280;36278;47.952;21.714;2023-01-28T14:33:53;100612.78;;;3.45;78.95
43071;BME280;36278;47.952;21.714;2023-01-28T14:36:19;100617.28;;;3.41;80.44
43071;BME280;36278;47.952;21.714;2023-01-28T14:38:45;100613.66;;;3.23;79.31
43071;BME280;36278;47.952;21.714;2023-01-28T14:41:20;100614.50;;;3.24;79.44
43071;BME280;36278;47.952;21.714;2023-01-28T14:43:47;100617.72;;;3.30;80.63
43071;BME280;36278;47.952;21.714;2023-01-28T14:49:03;100630.56;;;3.36;79.41
43071;BME280;36278;47.952;21.714;2023-01-28T14:56:55;100651.16;;;3.24;79.41
43071;BME280;36278;47.952;21.714;2023-01-28T14:59:29;100654.63;;;3.24;78.30
43071;BME280;36278;47.952;21.714;2023-01-28T15:01:59;100646.19;;;3.18;77.42
43071;BME280;36278;47.952;21.714;2023-01-28T15:04:32;100651.88;;;3.05;78.50
43071;BME280;36278;47.952;21.714;2023-01-28T15:07:18;100648.19;;;3.11;79.00